Herkenbosch, Netherlands
Current Conditions -  °F | °C
As of 8:50 AM on Sunday 23 Nov 2014 (Local Time) from EDLN Reporting Station
Clear Clear  
Wind Chill: 42°   Ceiling: Unl
Heat Index: 46°   Visibility: 6mi
Dew Point: 43°   Wind: 8mph
Humidity: 87%   Direction: 140°SE
Pressure: 30.06"   Gusts: NA
Location:  51.15°N, 6.06°E
Report Text: EDLN 230750Z 14007KT 100V170 CAVOK 08/06 Q1018 RMK ATIS C
Loading
Personal Weather Stations






























Interactive Weather Map New forecast layout! Learn more

10-Day Weather Forecast

Advertisements
Track Severe Weather on mobile